createdAt,value
2022-08-12T00:00:36.810Z,15.43
2022-08-12T00:03:59.587Z,15.45
2022-08-12T00:07:22.780Z,15.46
2022-08-12T00:10:45.560Z,15.46
2022-08-12T00:14:10.021Z,15.47
2022-08-12T00:17:33.112Z,15.47
2022-08-12T00:20:55.567Z,15.47
2022-08-12T00:24:18.790Z,15.47
2022-08-12T00:27:43.584Z,15.45
2022-08-12T00:31:10.347Z,15.47
2022-08-12T00:34:33.456Z,15.45
2022-08-12T00:37:56.070Z,15.43
2022-08-12T00:41:19.151Z,15.42
2022-08-12T00:44:27.733Z,15.39
2022-08-12T00:47:38.454Z,15.34
2022-08-12T00:50:46.213Z,15.30
2022-08-12T00:53:52.289Z,15.26
2022-08-12T00:57:04.131Z,15.23
2022-08-12T01:00:13.064Z,15.19
2022-08-12T01:03:24.264Z,15.14
2022-08-12T01:06:51.095Z,15.10
2022-08-12T01:10:16.671Z,15.06
2022-08-12T01:13:23.791Z,15.03
2022-08-12T01:16:31.381Z,15.02
2022-08-12T01:19:40.705Z,15.02
2022-08-12T01:23:01.194Z,14.97
2022-08-12T01:26:13.658Z,14.88
2022-08-12T01:29:27.047Z,14.83
2022-08-12T01:32:38.206Z,14.78
2022-08-12T01:36:07.682Z,14.73
2022-08-12T01:39:14.523Z,14.65
2022-08-12T01:42:25.701Z,14.62
2022-08-12T01:45:40.588Z,14.60
2022-08-12T01:49:10.586Z,14.60
2022-08-12T01:52:32.194Z,14.57
2022-08-12T01:55:41.114Z,14.56
2022-08-12T01:59:05.663Z,14.55
2022-08-12T02:02:21.162Z,14.52
2022-08-12T02:05:56.309Z,14.51
2022-08-12T02:09:22.236Z,14.49
2022-08-12T02:12:42.735Z,14.48
2022-08-12T02:16:04.085Z,14.38
2022-08-12T02:19:25.906Z,14.28
2022-08-12T02:22:38.774Z,14.25
2022-08-12T02:25:48.308Z,14.17
2022-08-12T02:28:55.676Z,14.13
2022-08-12T02:32:06.118Z,14.11
2022-08-12T02:35:15.164Z,14.06
2022-08-12T02:38:23.416Z,14.03
2022-08-12T02:41:33.199Z,14.05
2022-08-12T02:44:43.879Z,14.11
2022-08-12T02:48:01.113Z,14.15
2022-08-12T02:51:09.994Z,14.15
2022-08-12T02:54:16.781Z,14.14
2022-08-12T02:57:25.204Z,14.11
2022-08-12T03:00:32.328Z,14.07
2022-08-12T03:03:45.237Z,14.09
2022-08-12T03:06:58.021Z,14.08
2022-08-12T03:10:14.614Z,14.04
2022-08-12T03:13:29.567Z,14.01
2022-08-12T03:16:36.799Z,14.00
2022-08-12T03:20:09.342Z,13.99
2022-08-12T03:23:28.901Z,13.93
2022-08-12T03:26:39.387Z,13.92
2022-08-12T03:29:50.245Z,13.89
2022-08-12T03:33:00.709Z,13.90
2022-08-12T03:36:12.557Z,13.90
2022-08-12T03:39:36.394Z,13.91
2022-08-12T03:42:52.165Z,13.94
2022-08-12T03:46:18.210Z,13.90
2022-08-12T03:49:40.336Z,13.84
2022-08-12T03:53:05.566Z,13.87
2022-08-12T03:56:27.129Z,13.90
2022-08-12T03:59:49.433Z,13.91
2022-08-12T04:03:03.334Z,13.95
2022-08-12T04:06:12.158Z,13.97
2022-08-12T04:09:23.562Z,14.01
2022-08-12T04:12:43.366Z,14.03
2022-08-12T04:15:50.419Z,14.06
2022-08-12T04:18:57.708Z,14.17
2022-08-12T04:22:04.038Z,14.23
2022-08-12T04:25:14.253Z,14.33
2022-08-12T04:28:28.104Z,14.41
2022-08-12T04:31:38.095Z,14.48
2022-08-12T04:34:45.523Z,14.62
2022-08-12T04:38:00.306Z,14.71
2022-08-12T04:41:11.288Z,14.80
2022-08-12T04:44:18.014Z,14.85
2022-08-12T04:47:24.552Z,14.84
2022-08-12T04:50:35.408Z,14.85
2022-08-12T04:53:43.881Z,14.87
2022-08-12T04:57:03.671Z,14.92
2022-08-12T05:00:13.420Z,14.93
2022-08-12T05:03:20.922Z,14.96
2022-08-12T05:06:27.531Z,14.93
2022-08-12T05:10:01.781Z,14.97
2022-08-12T05:13:04.390Z,15.05
2022-08-12T05:16:12.368Z,15.15
2022-08-12T05:19:22.767Z,15.29
2022-08-12T05:22:30.527Z,15.45
2022-08-12T05:25:44.281Z,15.66
2022-08-12T05:28:54.423Z,15.84
2022-08-12T05:32:00.870Z,15.96
2022-08-12T05:35:09.479Z,16.03
2022-08-12T05:38:32.384Z,16.05
2022-08-12T05:41:40.233Z,16.20
2022-08-12T05:44:49.027Z,16.32
2022-08-12T05:47:55.851Z,16.38
2022-08-12T05:51:03.123Z,16.50
2022-08-12T05:54:09.924Z,16.64
2022-08-12T05:57:15.860Z,16.76
2022-08-12T06:00:26.819Z,16.90
2022-08-12T06:03:33.222Z,17.05
2022-08-12T06:06:41.994Z,17.18
2022-08-12T06:09:47.896Z,17.21
2022-08-12T06:12:57.743Z,17.25
2022-08-12T06:16:07.580Z,17.36
2022-08-12T06:19:14.800Z,17.50
2022-08-12T06:22:21.015Z,17.61
2022-08-12T06:25:28.110Z,17.69
2022-08-12T06:28:34.107Z,17.78
2022-08-12T06:31:43.818Z,17.90
2022-08-12T06:35:26.805Z,18.01
2022-08-12T06:38:19.229Z,18.11
2022-08-12T06:41:40.817Z,18.24
2022-08-12T06:45:12.204Z,18.37
2022-08-12T06:48:21.629Z,18.61
2022-08-12T06:51:29.837Z,18.74
2022-08-12T06:54:35.939Z,18.89
2022-08-12T06:58:06.221Z,19.06
2022-08-12T07:01:15.274Z,19.24
2022-08-12T07:04:40.499Z,19.36
2022-08-12T07:07:48.187Z,19.47
2022-08-12T07:10:59.472Z,19.47
2022-08-12T07:14:12.211Z,19.57
2022-08-12T07:17:20.465Z,19.60
2022-08-12T07:20:51.611Z,19.67
2022-08-12T07:23:58.292Z,19.67
2022-08-12T07:27:04.373Z,19.82
2022-08-12T07:30:12.983Z,20.06
2022-08-12T07:33:19.931Z,20.33
2022-08-12T07:36:29.589Z,20.38
2022-08-12T07:39:35.594Z,20.66
2022-08-12T07:42:43.771Z,20.84
2022-08-12T07:45:50.258Z,20.75
2022-08-12T07:48:59.068Z,20.72
2022-08-12T07:52:09.708Z,20.93
2022-08-12T07:55:18.989Z,21.25
2022-08-12T07:58:26.569Z,21.73
2022-08-12T08:01:34.181Z,21.90
2022-08-12T08:04:56.052Z,22.23
2022-08-12T08:08:15.073Z,22.34
2022-08-12T08:11:36.950Z,22.00
2022-08-12T08:14:45.163Z,22.03
2022-08-12T08:18:03.084Z,21.98
2022-08-12T08:21:11.301Z,22.01
2022-08-12T08:24:20.593Z,22.19
2022-08-12T08:27:28.097Z,22.43
2022-08-12T08:30:34.966Z,22.34
2022-08-12T08:34:09.571Z,22.12
2022-08-12T08:37:10.589Z,22.42
2022-08-12T08:40:40.961Z,22.66
2022-08-12T08:43:46.932Z,22.52
2022-08-12T08:46:55.901Z,22.41
2022-08-12T08:50:03.366Z,22.31
2022-08-12T08:53:11.673Z,22.12
2022-08-12T08:56:20.869Z,22.11
2022-08-12T08:59:28.057Z,22.20
2022-08-12T09:02:34.192Z,22.23
2022-08-12T09:06:02.480Z,22.34
2022-08-12T09:09:14.519Z,22.17
2022-08-12T09:12:42.344Z,22.41
2022-08-12T09:15:55.093Z,22.45
2022-08-12T09:19:03.817Z,22.60
2022-08-12T09:22:18.610Z,22.79
2022-08-12T09:25:33.416Z,22.91
2022-08-12T09:28:42.479Z,22.90
2022-08-12T09:32:03.334Z,22.99
2022-08-12T09:35:18.542Z,23.06
2022-08-12T09:38:30.234Z,23.11
2022-08-12T09:42:34.217Z,23.01
2022-08-12T09:46:05.185Z,22.98
2022-08-12T09:48:56.575Z,22.89
2022-08-12T09:52:03.926Z,22.91
2022-08-12T09:55:59.542Z,23.14
2022-08-12T09:58:57.299Z,23.36
2022-08-12T10:02:44.630Z,23.83
2022-08-12T10:06:27.126Z,24.03
2022-08-12T10:09:09.915Z,24.14
2022-08-12T10:12:33.482Z,24.26
2022-08-12T10:16:02.574Z,24.25
2022-08-12T10:19:17.046Z,24.28
2022-08-12T10:22:40.458Z,24.37
2022-08-12T10:26:34.466Z,24.52
2022-08-12T10:30:11.907Z,24.53
2022-08-12T10:33:19.214Z,24.45
2022-08-12T10:36:43.099Z,24.38
2022-08-12T10:40:00.747Z,24.52
2022-08-12T10:43:25.063Z,24.68
2022-08-12T10:46:32.163Z,24.72
2022-08-12T10:50:02.823Z,24.73
2022-08-12T10:53:11.458Z,24.87
2022-08-12T10:56:26.843Z,24.92
2022-08-12T11:00:32.820Z,24.67
2022-08-12T11:04:20.101Z,24.49
2022-08-12T11:07:06.727Z,24.59
2022-08-12T11:10:03.872Z,24.64
2022-08-12T11:13:10.945Z,24.68
2022-08-12T11:16:22.288Z,24.77
2022-08-12T11:19:30.705Z,24.55
2022-08-12T11:22:39.473Z,24.49
2022-08-12T11:25:57.745Z,24.33
2022-08-12T11:29:22.203Z,24.22
2022-08-12T11:32:29.966Z,24.29
2022-08-12T11:35:45.053Z,24.40
2022-08-12T11:39:04.229Z,24.59
2022-08-12T11:42:13.384Z,24.74
2022-08-12T11:45:20.214Z,24.95
2022-08-12T11:48:26.649Z,25.00
2022-08-12T11:51:36.535Z,25.07
2022-08-12T11:54:50.849Z,24.83
2022-08-12T11:58:27.986Z,24.85
2022-08-12T12:02:02.690Z,24.99
2022-08-12T12:04:54.032Z,25.15
2022-08-12T12:08:37.218Z,25.13
2022-08-12T12:11:26.784Z,24.97
2022-08-12T12:14:38.146Z,24.90
2022-08-12T12:17:45.891Z,24.91
2022-08-12T12:20:53.402Z,25.08
2022-08-12T12:24:00.704Z,25.28
2022-08-12T12:27:09.148Z,25.45
2022-08-12T12:30:30.039Z,25.55
2022-08-12T12:33:56.912Z,25.77
2022-08-12T12:37:03.755Z,25.96
2022-08-12T12:40:13.035Z,26.13
2022-08-12T12:43:28.736Z,26.19
2022-08-12T12:46:49.831Z,26.16
2022-08-12T12:49:56.645Z,26.00
2022-08-12T12:53:02.805Z,25.87
2022-08-12T12:56:13.387Z,25.76
2022-08-12T12:59:55.512Z,25.74
2022-08-12T13:02:55.859Z,25.45
2022-08-12T13:06:03.622Z,25.11
2022-08-12T13:09:13.355Z,24.87
2022-08-12T13:12:20.434Z,24.86
2022-08-12T13:15:45.452Z,24.93
2022-08-12T13:18:57.344Z,24.94
2022-08-12T13:22:23.819Z,24.99
2022-08-12T13:25:29.942Z,24.98
2022-08-12T13:28:43.198Z,25.02
2022-08-12T13:32:18.728Z,25.26
2022-08-12T13:35:33.021Z,25.56
2022-08-12T13:38:42.116Z,25.80
2022-08-12T13:41:51.749Z,26.06
2022-08-12T13:45:02.904Z,26.36
2022-08-12T13:48:11.622Z,26.55
2022-08-12T13:51:24.101Z,26.43
2022-08-12T13:54:31.478Z,26.19
2022-08-12T13:57:46.905Z,25.85
2022-08-12T14:00:58.473Z,25.69
2022-08-12T14:04:06.988Z,25.64
2022-08-12T14:07:21.387Z,25.60
2022-08-12T14:10:50.911Z,25.51
2022-08-12T14:14:04.682Z,25.56
2022-08-12T14:17:19.846Z,25.64
2022-08-12T14:20:26.800Z,25.80
2022-08-12T14:24:05.307Z,25.95
2022-08-12T14:27:09.342Z,26.13
2022-08-12T14:30:29.457Z,26.23
2022-08-12T14:33:43.963Z,26.42
2022-08-12T14:36:50.583Z,26.67
2022-08-12T14:40:01.126Z,26.83
2022-08-12T14:43:08.000Z,27.06
2022-08-12T14:46:19.534Z,27.26
2022-08-12T14:50:41.537Z,27.24
2022-08-12T14:56:58.736Z,26.38
2022-08-12T15:00:06.163Z,26.07
2022-08-12T15:03:14.597Z,25.98
2022-08-12T15:06:44.716Z,25.96
2022-08-12T15:09:48.808Z,26.00
2022-08-12T15:12:58.717Z,26.12
2022-08-12T15:16:06.849Z,26.06
2022-08-12T15:20:10.945Z,26.05
2022-08-12T15:22:53.438Z,26.14
2022-08-12T15:26:03.575Z,26.22
2022-08-12T15:29:12.591Z,26.35
2022-08-12T15:32:31.596Z,26.59
2022-08-12T15:35:52.076Z,26.87
2022-08-12T15:39:00.184Z,27.26
2022-08-12T15:42:08.518Z,27.85
2022-08-12T15:45:23.453Z,28.46
2022-08-12T15:48:31.750Z,29.00
2022-08-12T15:51:59.564Z,29.62
2022-08-12T15:55:11.693Z,30.45
2022-08-12T15:58:18.890Z,30.84
2022-08-12T16:01:35.699Z,30.96
2022-08-12T16:04:42.845Z,31.05
2022-08-12T16:07:51.269Z,31.34
2022-08-12T16:10:58.090Z,31.86
2022-08-12T16:14:03.965Z,32.46
2022-08-12T16:17:15.534Z,32.94
2022-08-12T16:20:33.219Z,33.33
2022-08-12T16:23:52.224Z,33.52
2022-08-12T16:27:03.138Z,33.50
2022-08-12T16:30:12.696Z,33.78
2022-08-12T16:33:21.429Z,33.78
2022-08-12T16:36:28.495Z,33.80
2022-08-12T16:40:04.611Z,33.71
2022-08-12T16:43:13.069Z,33.25
2022-08-12T16:46:31.130Z,32.89
2022-08-12T16:49:43.795Z,31.97
2022-08-12T16:52:50.706Z,30.77
2022-08-12T16:56:02.394Z,29.70
2022-08-12T16:59:12.649Z,29.07
2022-08-12T17:02:33.417Z,28.70
2022-08-12T17:05:43.532Z,28.34
2022-08-12T17:08:55.707Z,27.94
2022-08-12T17:12:03.615Z,27.54
2022-08-12T17:15:51.024Z,27.32
2022-08-12T17:18:56.837Z,27.10
2022-08-12T17:22:09.041Z,26.85
2022-08-12T17:25:16.141Z,26.60
2022-08-12T17:28:24.730Z,26.26
2022-08-12T17:32:00.358Z,25.97
2022-08-12T17:35:14.531Z,25.70
2022-08-12T17:38:23.394Z,25.52
2022-08-12T17:41:56.756Z,25.34
2022-08-12T17:45:01.624Z,25.19
2022-08-12T17:48:10.536Z,25.06
2022-08-12T17:51:18.031Z,24.90
2022-08-12T17:54:28.153Z,24.79
2022-08-12T17:57:41.731Z,24.64
2022-08-12T18:00:50.765Z,24.48
2022-08-12T18:04:20.849Z,24.34
2022-08-12T18:07:25.726Z,24.22
2022-08-12T18:10:55.644Z,24.12
2022-08-12T18:14:03.352Z,23.96
2022-08-12T18:17:10.280Z,23.86
2022-08-12T18:20:18.723Z,23.73
2022-08-12T18:23:25.178Z,23.58
2022-08-12T18:26:36.392Z,23.47
2022-08-12T18:29:43.721Z,23.35
2022-08-12T18:32:58.763Z,23.26
2022-08-12T18:36:12.987Z,23.17
2022-08-12T18:39:20.375Z,23.11
2022-08-12T18:42:27.529Z,23.03
2022-08-12T18:45:47.163Z,22.95
2022-08-12T18:49:17.667Z,22.88
2022-08-12T18:52:27.545Z,22.80
2022-08-12T18:55:37.204Z,22.74
2022-08-12T18:58:59.362Z,22.67
2022-08-12T19:02:20.830Z,22.57
2022-08-12T19:05:46.008Z,22.47
2022-08-12T19:08:56.796Z,22.37
2022-08-12T19:12:21.912Z,22.29
2022-08-12T19:15:30.746Z,22.19
2022-08-12T19:18:40.331Z,22.09
2022-08-12T19:21:56.595Z,22.03
2022-08-12T19:25:19.949Z,21.94
2022-08-12T19:28:29.793Z,21.87
2022-08-12T19:31:58.072Z,21.80
2022-08-12T19:38:34.959Z,21.58
2022-08-12T19:42:00.639Z,21.56
2022-08-12T19:45:12.436Z,21.51
2022-08-12T19:48:23.541Z,21.47
2022-08-12T19:51:38.167Z,21.43
2022-08-12T19:54:44.359Z,21.36
2022-08-12T19:58:04.655Z,21.28
2022-08-12T20:01:11.842Z,21.23
2022-08-12T20:04:21.387Z,21.18
2022-08-12T20:07:27.294Z,21.14
2022-08-12T20:10:51.022Z,21.07
2022-08-12T20:14:06.300Z,21.02
2022-08-12T20:17:16.742Z,20.95
2022-08-12T20:20:32.230Z,20.89
2022-08-12T20:23:50.689Z,20.82
2022-08-12T20:27:10.472Z,20.78
2022-08-12T20:30:52.593Z,20.73
2022-08-12T20:34:03.687Z,20.68
2022-08-12T20:37:15.008Z,20.64
2022-08-12T20:40:22.352Z,20.61
2022-08-12T20:43:33.891Z,20.57
2022-08-12T20:46:39.926Z,20.54
2022-08-12T20:49:55.592Z,20.48
2022-08-12T20:53:14.232Z,20.45
2022-08-12T20:56:30.175Z,20.40
2022-08-12T20:59:38.496Z,20.36
2022-08-12T21:03:14.841Z,20.28
2022-08-12T21:06:36.814Z,20.21
2022-08-12T21:09:48.352Z,20.09
2022-08-12T21:12:54.255Z,20.12
2022-08-12T21:16:03.326Z,20.05
2022-08-12T21:19:22.116Z,20.02
2022-08-12T21:22:33.616Z,19.99
2022-08-12T21:25:45.624Z,19.97
2022-08-12T21:28:58.066Z,19.94
2022-08-12T21:32:39.710Z,19.91
2022-08-12T21:35:35.831Z,19.87
2022-08-12T21:38:46.120Z,19.84
2022-08-12T21:42:02.488Z,19.78
2022-08-12T21:45:47.527Z,19.72
2022-08-12T21:48:41.047Z,19.64
2022-08-12T21:51:50.061Z,19.61
2022-08-12T21:54:58.796Z,19.56
2022-08-12T21:58:16.878Z,19.51
2022-08-12T22:01:23.834Z,19.44
2022-08-12T22:04:49.974Z,19.43
2022-08-12T22:07:58.723Z,19.38
2022-08-12T22:11:06.085Z,19.34
2022-08-12T22:14:21.289Z,19.31
2022-08-12T22:17:49.983Z,19.27
2022-08-12T22:20:58.089Z,19.21
2022-08-12T22:24:05.821Z,19.17
2022-08-12T22:27:31.968Z,19.15
2022-08-12T22:30:57.338Z,19.10
2022-08-12T22:34:04.107Z,19.05
2022-08-12T22:37:20.044Z,19.02
2022-08-12T22:40:27.238Z,18.98
2022-08-12T22:44:00.101Z,18.97
2022-08-12T22:47:45.772Z,18.97
2022-08-12T22:50:54.167Z,18.95
2022-08-12T22:54:01.189Z,18.89
2022-08-12T22:57:12.349Z,18.82
2022-08-12T23:00:24.301Z,18.74
2022-08-12T23:03:49.156Z,18.67
2022-08-12T23:07:05.367Z,18.60
2022-08-12T23:10:13.246Z,18.52
2022-08-12T23:13:48.545Z,18.48
2022-08-12T23:16:54.869Z,18.44
2022-08-12T23:20:04.404Z,18.41
2022-08-12T23:23:15.205Z,18.36
2022-08-12T23:26:42.538Z,18.34
2022-08-12T23:30:05.915Z,18.31
2022-08-12T23:33:59.573Z,18.26
2022-08-12T23:36:42.787Z,18.26
2022-08-12T23:40:13.400Z,18.24
2022-08-12T23:43:18.125Z,18.18
2022-08-12T23:46:27.468Z,18.15
2022-08-12T23:49:57.735Z,18.07
2022-08-12T23:53:05.542Z,18.06
2022-08-12T23:56:11.869Z,18.04
2022-08-12T23:59:19.512Z,17.99
